Time;durP1;ratioP1;P1;durP2;ratioP2;P2;SDS_P1;SDS_P2;PMS_P1;PMS_P2;Temp;Humidity;BMP_temperature;BMP_pressure;BME280_temperature;BME280_humidity;BME280_pressure;Samples;Min_cycle;Max_cycle;Signal;HPM_P1;HPM_P2
2021/07/05 00:02:08;;;;;;;1.20;1.10;;;;;;;24.43;71.40;97637.88;5072626;28;20584;-76
2021/07/05 00:04:36;;;;;;;1.33;0.80;;;;;;;24.13;72.42;97641.91;5072819;28;20210;-75
2021/07/05 00:07:04;;;;;;;1.37;1.00;;;;;;;24.31;71.51;97630.16;5069450;28;20850;-76
2021/07/05 00:09:33;;;;;;;0.90;0.60;;;;;;;23.62;76.08;97634.72;5070814;28;20212;-77
2021/07/05 00:12:00;;;;;;;3.17;0.97;;;;;;;24.05;74.08;97633.56;5070444;28;20590;-77
2021/07/05 00:14:27;;;;;;;1.60;0.80;;;;;;;24.20;73.40;97638.78;5072652;28;20682;-76
2021/07/05 00:16:55;;;;;;;0.97;0.87;;;;;;;24.47;72.09;97636.19;5070994;28;20309;-76
2021/07/05 00:19:22;;;;;;;2.47;0.90;;;;;;;24.13;72.81;97631.00;5068293;28;20256;-75
2021/07/05 00:21:50;;;;;;;0.67;0.67;;;;;;;24.16;74.04;97626.84;5073626;28;20212;-77
2021/07/05 00:24:18;;;;;;;1.53;0.90;;;;;;;24.12;73.68;97623.13;5073132;28;20210;-76
2021/07/05 00:26:47;;;;;;;1.40;0.80;;;;;;;24.47;72.09;97623.31;5072370;28;20786;-76
2021/07/05 00:29:14;;;;;;;5.10;1.10;;;;;;;24.10;74.46;97620.66;5070267;28;20223;-75
2021/07/05 00:31:41;;;;;;;1.43;1.00;;;;;;;24.56;71.82;97621.53;5068554;28;20206;-76
2021/07/05 00:34:09;;;;;;;1.30;0.77;;;;;;;24.44;71.98;97620.38;5065926;28;20296;-76
2021/07/05 00:36:36;;;;;;;1.93;0.80;;;;;;;24.48;72.06;97619.47;5072087;28;20227;-75
2021/07/05 00:39:04;;;;;;;1.00;0.90;;;;;;;24.49;71.33;97625.75;5072459;28;20233;-75
2021/07/05 00:41:31;;;;;;;0.97;0.80;;;;;;;24.59;71.07;97622.91;5071775;28;20198;-77
2021/07/05 00:44:00;;;;;;;0.80;0.70;;;;;;;24.85;69.92;97622.16;5061723;28;20690;-76
2021/07/05 00:46:28;;;;;;;4.10;0.80;;;;;;;24.84;70.10;97630.63;5066354;28;20234;-77
2021/07/05 00:48:56;;;;;;;1.60;1.00;;;;;;;24.45;71.36;97622.00;5070539;28;20564;-77
2021/07/05 00:51:24;;;;;;;2.87;0.90;;;;;;;25.01;68.78;97620.75;5065063;28;20205;-76
2021/07/05 00:56:27;;;;;;;0.87;0.83;;;;;;;24.55;70.53;97619.09;5472290;22;20238;-73
2021/07/05 00:58:55;;;;;;;2.93;1.20;;;;;;;25.21;67.17;97633.19;5052184;28;20222;-77
2021/07/05 01:01:24;;;;;;;2.70;1.00;;;;;;;24.62;70.27;97633.22;5051056;28;20676;-75
2021/07/05 01:03:51;;;;;;;1.40;0.90;;;;;;;24.60;70.71;97619.03;5051809;28;20570;-73
2021/07/05 01:06:19;;;;;;;0.80;0.80;;;;;;;24.23;71.71;97625.34;5051031;28;20869;-72
2021/07/05 01:08:46;;;;;;;1.60;0.80;;;;;;;24.72;71.25;97625.66;5037810;28;20205;-73
2021/07/05 01:11:13;;;;;;;0.90;0.80;;;;;;;25.13;68.49;97631.19;5050353;28;20207;-75
2021/07/05 01:13:41;;;;;;;1.20;0.87;;;;;;;24.82;69.22;97621.94;5036054;28;20208;-76
2021/07/05 01:16:08;;;;;;;0.70;0.70;;;;;;;25.32;66.76;97618.22;5048161;28;20229;-75
2021/07/05 01:18:37;;;;;;;1.23;0.90;;;;;;;25.05;68.18;97623.66;5049142;28;20228;-75
2021/07/05 01:21:05;;;;;;;10.43;2.40;;;;;;;25.09;68.22;97611.81;5044187;28;20210;-74
2021/07/05 01:23:33;;;;;;;0.80;0.80;;;;;;;25.15;67.87;97607.09;5047208;28;20205;-74
2021/07/05 01:26:00;;;;;;;1.10;1.00;;;;;;;24.50;71.12;97606.38;5049294;28;20235;-74
2021/07/05 01:28:27;;;;;;;2.03;0.80;;;;;;;25.07;68.12;97608.59;5040351;28;20200;-75
2021/07/05 01:30:55;;;;;;;1.20;0.90;;;;;;;24.83;69.09;97594.31;5046831;28;20280;-74
2021/07/05 01:33:23;;;;;;;1.10;0.67;;;;;;;25.39;66.47;97596.78;5034267;28;20209;-74
2021/07/05 01:35:51;;;;;;;0.90;0.60;;;;;;;24.96;67.85;97592.72;5051621;28;20218;-74
2021/07/05 01:38:21;;;;;;;1.27;0.90;;;;;;;24.60;70.19;97592.59;5046783;28;20237;-74
2021/07/05 01:40:53;;;;;;;0.80;0.80;;;;;;;24.69;69.05;97596.25;5043953;28;20660;-74
2021/07/05 01:43:21;;;;;;;2.23;0.93;;;;;;;24.98;67.05;97599.50;5046187;28;20213;-74
2021/07/05 01:45:48;;;;;;;2.60;0.90;;;;;;;25.04;67.38;97601.00;5047022;28;20232;-74
2021/07/05 01:48:16;;;;;;;0.87;0.87;;;;;;;24.37;70.83;97596.22;5052211;28;20302;-76
2021/07/05 01:50:43;;;;;;;1.97;0.90;;;;;;;24.52;68.82;97600.63;5034345;28;20209;-75
2021/07/05 01:53:11;;;;;;;0.90;0.90;;;;;;;25.00;67.57;97583.63;5044797;28;20208;-75
2021/07/05 01:55:40;;;;;;;0.80;0.80;;;;;;;24.65;68.19;97578.03;5034397;28;20225;-75
2021/07/05 01:58:08;;;;;;;1.10;1.00;;;;;;;24.58;69.17;97572.13;5041816;28;20215;-74
2021/07/05 02:00:37;;;;;;;1.80;0.87;;;;;;;24.60;68.02;97573.47;5038727;28;20205;-75
2021/07/05 02:03:05;;;;;;;1.20;1.00;;;;;;;25.06;67.15;97576.13;5043292;28;20205;-74
2021/07/05 02:05:34;;;;;;;2.73;0.90;;;;;;;25.09;66.29;97587.25;5036640;28;20238;-74
2021/07/05 02:08:01;;;;;;;2.00;0.90;;;;;;;25.19;65.00;97581.59;5042321;28;20246;-76
2021/07/05 02:10:31;;;;;;;1.33;1.00;;;;;;;25.28;65.45;97588.00;5040383;28;20203;-75
2021/07/05 02:13:02;;;;;;;1.10;0.90;;;;;;;24.69;66.61;97579.03;5048207;28;20201;-74
2021/07/05 02:15:30;;;;;;;1.73;1.07;;;;;;;24.44;68.47;97576.75;5035281;28;20232;-74
2021/07/05 02:17:57;;;;;;;2.87;0.83;;;;;;;24.42;70.03;97562.59;5035120;28;20201;-74
2021/07/05 02:20:26;;;;;;;1.87;1.00;;;;;;;24.43;67.82;97558.75;5040867;28;20687;-75
2021/07/05 02:22:54;;;;;;;1.37;1.03;;;;;;;24.65;68.58;97567.09;5042927;28;20201;-75
2021/07/05 02:25:26;;;;;;;2.87;0.93;;;;;;;23.51;72.72;97573.28;5042956;28;20228;-75
2021/07/05 02:27:54;;;;;;;2.70;1.30;;;;;;;24.30;70.16;97578.63;5035914;28;20201;-75
2021/07/05 02:30:23;;;;;;;1.10;1.00;;;;;;;24.64;68.07;97581.88;5031561;28;20204;-75
2021/07/05 02:32:51;;;;;;;2.27;0.90;;;;;;;24.37;68.87;97573.59;5039462;28;20199;-74
2021/07/05 02:35:19;;;;;;;1.27;0.90;;;;;;;24.86;66.56;97574.63;5039175;28;20220;-74
2021/07/05 02:37:48;;;;;;;1.87;0.93;;;;;;;24.72;66.82;97568.34;5044383;28;20558;-76
2021/07/05 02:40:17;;;;;;;3.87;1.57;;;;;;;24.85;66.19;97569.47;5043981;28;20225;-75
2021/07/05 02:42:45;;;;;;;2.70;1.00;;;;;;;24.69;66.50;97571.69;5037409;28;20201;-74
2021/07/05 02:45:18;;;;;;;1.00;0.90;;;;;;;24.79;66.28;97581.59;5039709;28;20210;-74
2021/07/05 02:47:46;;;;;;;1.33;0.90;;;;;;;25.23;64.67;97577.13;5032714;28;20194;-79
2021/07/05 02:50:14;;;;;;;2.80;1.20;;;;;;;24.77;66.50;97581.09;5048620;28;20208;-76
2021/07/05 02:52:41;;;;;;;1.50;1.10;;;;;;;24.36;68.06;97575.50;5043543;28;20226;-75
2021/07/05 02:55:10;;;;;;;3.83;1.70;;;;;;;25.08;64.50;97576.66;5050325;28;20566;-74
2021/07/05 02:57:38;;;;;;;1.10;0.93;;;;;;;24.80;65.94;97575.00;5040510;28;20570;-77
2021/07/05 03:00:09;;;;;;;1.47;1.00;;;;;;;24.70;65.62;97588.84;5031517;28;20282;-74
2021/07/05 03:02:37;;;;;;;1.10;0.70;;;;;;;24.85;64.79;97594.03;5049920;28;20219;-74
2021/07/05 03:05:08;;;;;;;4.73;1.03;;;;;;;25.33;62.83;97606.22;5032251;28;20209;-74
2021/07/05 03:07:36;;;;;;;3.00;1.10;;;;;;;25.08;63.78;97596.56;5043985;28;20287;-74
2021/07/05 03:10:04;;;;;;;2.17;1.13;;;;;;;25.31;62.70;97592.03;5043095;28;20205;-74
2021/07/05 03:12:31;;;;;;;1.00;0.80;;;;;;;25.13;63.85;97582.81;5033257;28;20213;-74
2021/07/05 03:14:58;;;;;;;2.10;0.90;;;;;;;25.44;62.42;97586.56;5038912;28;20207;-74
2021/07/05 03:17:26;;;;;;;1.63;0.83;;;;;;;24.66;65.88;97591.38;5048871;28;20235;-75
2021/07/05 03:19:53;;;;;;;1.80;1.13;;;;;;;25.35;63.23;97593.06;5033090;28;20217;-75
2021/07/05 03:22:22;;;;;;;2.60;1.07;;;;;;;24.64;66.45;97579.97;5042625;28;20205;-77
2021/07/05 03:24:49;;;;;;;1.70;1.03;;;;;;;25.17;65.04;97580.28;5035725;28;20204;-74
2021/07/05 03:27:16;;;;;;;4.63;0.80;;;;;;;24.79;65.22;97584.31;5041909;28;20232;-76
2021/07/05 03:29:43;;;;;;;1.40;1.10;;;;;;;25.11;64.43;97584.22;5036855;28;20232;-74
2021/07/05 03:32:11;;;;;;;1.10;1.00;;;;;;;25.27;63.71;97580.91;5047538;28;20222;-75
2021/07/05 03:34:38;;;;;;;1.53;0.97;;;;;;;25.38;63.07;97584.25;5050197;28;20204;-75
2021/07/05 03:37:05;;;;;;;1.93;0.80;;;;;;;25.65;61.51;97595.91;5050072;28;20220;-74
2021/07/05 03:39:34;;;;;;;2.67;1.17;;;;;;;25.13;64.37;97598.41;5040779;28;20226;-74
2021/07/05 03:42:01;;;;;;;1.07;0.90;;;;;;;24.87;66.14;97581.69;5050655;28;20216;-74
2021/07/05 03:44:28;;;;;;;1.60;0.93;;;;;;;25.56;62.30;97586.84;5039367;28;20202;-76
2021/07/05 03:46:56;;;;;;;2.27;1.00;;;;;;;25.65;62.26;97586.94;5042248;28;20229;-74
2021/07/05 03:49:23;;;;;;;1.80;1.17;;;;;;;24.96;65.03;97574.41;5050642;28;20192;-76
2021/07/05 03:51:51;;;;;;;1.73;1.10;;;;;;;24.54;66.01;97568.38;5045026;28;20208;-77
2021/07/05 03:54:19;;;;;;;1.23;0.90;;;;;;;24.92;66.49;97561.66;5047468;28;20258;-75
2021/07/05 03:56:47;;;;;;;1.20;1.10;;;;;;;25.53;62.86;97578.47;5037628;28;20234;-75
2021/07/05 03:59:15;;;;;;;2.17;1.10;;;;;;;25.33;63.93;97581.63;5049606;28;20225;-75
2021/07/05 04:01:42;;;;;;;1.53;1.00;;;;;;;25.16;64.36;97563.09;5041368;28;20197;-76
2021/07/05 04:04:10;;;;;;;1.67;0.90;;;;;;;25.44;63.12;97572.09;5036878;28;20674;-74
2021/07/05 04:06:37;;;;;;;1.73;1.07;;;;;;;25.20;63.30;97574.22;5042052;28;20741;-77
2021/07/05 04:09:05;;;;;;;2.40;1.10;;;;;;;25.06;65.20;97570.66;5037668;28;20201;-77
2021/07/05 04:11:33;;;;;;;1.67;1.20;;;;;;;25.32;63.04;97571.78;5041538;28;21590;-76
2021/07/05 04:14:02;;;;;;;2.73;1.10;;;;;;;25.34;63.54;97580.50;5039928;28;20212;-75
2021/07/05 04:16:29;;;;;;;2.93;1.17;;;;;;;25.51;62.12;97583.41;5044153;28;20231;-74
2021/07/05 04:18:57;;;;;;;4.07;1.17;;;;;;;25.46;63.38;97573.41;5045581;28;20648;-75
2021/07/05 04:21:26;;;;;;;2.03;1.07;;;;;;;25.22;63.77;97585.63;5036261;28;20204;-75
2021/07/05 04:23:54;;;;;;;1.73;1.10;;;;;;;25.22;63.88;97582.91;5035258;28;20260;-75
2021/07/05 04:26:21;;;;;;;1.93;1.07;;;;;;;25.14;64.01;97584.41;5043806;28;20713;-74
2021/07/05 04:28:48;;;;;;;2.80;1.10;;;;;;;25.18;64.74;97587.38;5036663;28;20204;-77
2021/07/05 04:31:17;;;;;;;1.60;1.00;;;;;;;24.08;69.79;97594.81;5052396;28;20198;-78
2021/07/05 04:33:44;;;;;;;1.53;0.97;;;;;;;25.34;63.66;97596.91;5040426;28;20211;-75
2021/07/05 04:36:12;;;;;;;2.50;1.03;;;;;;;24.84;66.49;97593.22;5042260;28;20231;-76
2021/07/05 04:38:40;;;;;;;1.17;0.93;;;;;;;24.83;65.49;97596.25;5035421;28;20197;-75
2021/07/05 04:41:07;;;;;;;1.63;1.20;;;;;;;25.00;65.22;97591.00;5042548;28;20255;-74
2021/07/05 04:43:37;;;;;;;2.07;1.00;;;;;;;25.30;63.60;97601.34;5033257;28;20199;-76
2021/07/05 04:46:05;;;;;;;4.27;1.10;;;;;;;24.63;67.65;97593.91;5046854;28;20329;-75
2021/07/05 04:48:34;;;;;;;1.27;1.00;;;;;;;25.10;65.97;97599.00;5036374;28;20221;-76
2021/07/05 04:51:03;;;;;;;3.17;1.20;;;;;;;25.09;65.49;97594.66;5039264;28;20211;-77
2021/07/05 04:53:30;;;;;;;3.27;1.00;;;;;;;25.04;65.68;97594.75;5039535;28;20220;-75
2021/07/05 04:55:59;;;;;;;2.10;1.17;;;;;;;25.53;63.68;97589.41;5049282;28;20228;-74
2021/07/05 04:58:27;;;;;;;2.73;0.83;;;;;;;25.29;63.40;97583.34;5048694;28;20216;-72
2021/07/05 05:00:54;;;;;;;1.73;0.97;;;;;;;25.71;61.18;97583.78;5042433;28;20225;-78
2021/07/05 05:03:22;;;;;;;3.17;1.00;;;;;;;26.06;61.12;97584.91;5052127;28;20975;-72
2021/07/05 05:05:50;;;;;;;2.47;1.00;;;;;;;25.70;60.63;97595.00;5052868;28;20220;-71
2021/07/05 05:08:18;;;;;;;3.30;1.00;;;;;;;26.36;59.74;97584.16;5052208;28;20215;-72
2021/07/05 05:10:45;;;;;;;2.23;1.00;;;;;;;26.45;58.50;97572.13;5037754;28;20208;-69
2021/07/05 05:13:12;;;;;;;1.10;1.00;;;;;;;26.54;57.91;97578.47;5050766;28;20685;-71
2021/07/05 05:15:40;;;;;;;2.00;1.00;;;;;;;26.21;59.53;97590.84;5047312;28;20596;-72
2021/07/05 05:18:08;;;;;;;2.63;1.23;;;;;;;26.35;59.18;97588.03;5049134;28;20206;-72
2021/07/05 05:20:35;;;;;;;2.93;1.00;;;;;;;26.70;57.25;97587.94;5043447;28;20236;-71
2021/07/05 05:23:04;;;;;;;1.47;1.30;;;;;;;26.64;58.18;97593.84;5045510;28;20214;-73
2021/07/05 05:25:31;;;;;;;2.60;1.10;;;;;;;26.35;58.46;97601.69;5044734;28;20222;-72
2021/07/05 05:27:59;;;;;;;1.37;1.00;;;;;;;26.46;59.26;97603.06;5046759;28;20203;-73
2021/07/05 05:30:26;;;;;;;1.97;1.00;;;;;;;26.62;58.85;97618.00;5048722;28;20198;-74
2021/07/05 05:32:56;;;;;;;2.07;0.93;;;;;;;26.85;57.86;97617.66;5051345;28;20209;-72
2021/07/05 05:35:25;;;;;;;3.20;0.90;;;;;;;27.04;56.56;97617.41;5043064;28;20233;-73
2021/07/05 05:37:53;;;;;;;5.87;1.20;;;;;;;26.49;58.79;97614.19;5050418;28;20214;-72
2021/07/05 05:40:23;;;;;;;2.03;0.90;;;;;;;27.07;56.60;97625.00;5036258;28;20340;-74
2021/07/05 05:42:50;;;;;;;2.73;1.07;;;;;;;27.30;56.15;97621.09;5050907;28;20692;-76
2021/07/05 05:45:20;;;;;;;6.13;1.60;;;;;;;26.97;56.93;97628.84;5048739;28;20787;-75
2021/07/05 05:47:48;;;;;;;2.33;1.17;;;;;;;26.23;60.69;97626.88;5041649;28;20215;-76
2021/07/05 05:50:16;;;;;;;2.10;1.03;;;;;;;27.07;57.33;97631.28;5038779;28;20206;-77
2021/07/05 05:52:44;;;;;;;1.50;0.80;;;;;;;27.10;55.86;97618.88;5051179;28;20206;-74
2021/07/05 05:55:12;;;;;;;1.00;0.90;;;;;;;27.21;56.16;97621.06;5046814;28;20216;-74
2021/07/05 05:57:41;;;;;;;1.53;1.00;;;;;;;26.59;58.59;97615.88;5031887;28;20290;-72
2021/07/05 06:00:14;;;;;;;2.70;0.97;;;;;;;25.88;61.79;97613.19;5041512;28;20233;-73
2021/07/05 06:02:42;;;;;;;2.90;1.10;;;;;;;26.25;62.90;97608.22;5035759;28;20202;-72
2021/07/05 06:05:10;;;;;;;4.07;1.10;;;;;;;26.30;61.99;97607.31;5049856;28;20209;-75
2021/07/05 06:07:37;;;;;;;4.10;1.30;;;;;;;26.16;62.51;97593.69;5049246;28;20203;-79
2021/07/05 06:10:06;;;;;;;1.80;1.00;;;;;;;26.89;59.00;97604.94;5049248;28;20276;-78
2021/07/05 06:12:34;;;;;;;1.20;0.90;;;;;;;25.94;63.35;97598.34;5038108;28;20574;-76
2021/07/05 06:15:02;;;;;;;3.40;0.93;;;;;;;25.27;67.03;97591.03;5043723;28;20572;-77
2021/07/05 06:17:30;;;;;;;2.20;1.10;;;;;;;26.46;62.49;97600.31;5043318;28;20207;-74
2021/07/05 06:19:57;;;;;;;1.83;1.10;;;;;;;26.55;61.23;97603.94;5046656;28;20226;-75
2021/07/05 06:22:29;;;;;;;2.37;1.03;;;;;;;26.84;61.70;97604.28;5042807;28;20202;-76
2021/07/05 06:24:57;;;;;;;2.53;1.57;;;;;;;26.46;62.47;97592.91;5042602;28;20214;-77
2021/07/05 06:27:24;;;;;;;4.27;1.00;;;;;;;26.32;63.63;97596.84;5035523;28;20694;-79
2021/07/05 06:29:52;;;;;;;2.40;1.10;;;;;;;26.53;61.66;97595.22;5045699;28;20213;-77
2021/07/05 06:32:24;;;;;;;1.33;1.23;;;;;;;26.67;62.16;97595.97;5041830;28;20907;-76
2021/07/05 06:34:51;;;;;;;1.50;1.00;;;;;;;26.45;63.26;97588.56;5039765;28;20253;-75
2021/07/05 06:37:18;;;;;;;1.50;1.00;;;;;;;26.43;62.49;97592.72;5043752;28;20218;-74
2021/07/05 06:39:47;;;;;;;1.90;1.00;;;;;;;26.55;62.41;97595.72;5036027;28;20205;-75
2021/07/05 06:42:15;;;;;;;1.93;1.13;;;;;;;26.52;63.75;97599.06;5051372;28;20263;-75
2021/07/05 06:44:44;;;;;;;3.63;1.17;;;;;;;26.61;63.33;97602.72;5039960;28;20227;-73
2021/07/05 06:47:12;;;;;;;2.83;1.07;;;;;;;26.45;63.61;97601.44;5031671;28;20218;-74
2021/07/05 06:49:40;;;;;;;2.00;1.00;;;;;;;26.68;62.93;97603.06;5031492;28;20197;-76
2021/07/05 06:52:07;;;;;;;1.80;0.97;;;;;;;26.56;63.21;97609.09;5038274;28;21022;-74
2021/07/05 06:54:35;;;;;;;1.00;0.90;;;;;;;26.86;63.48;97604.78;5039609;28;20215;-74
2021/07/05 06:57:04;;;;;;;2.57;1.20;;;;;;;27.33;61.77;97615.81;5039702;28;20222;-74
2021/07/05 06:59:31;;;;;;;2.23;1.20;;;;;;;26.75;62.32;97608.91;5050327;28;20674;-74
2021/07/05 07:01:58;;;;;;;2.07;1.17;;;;;;;26.54;62.96;97613.25;5051248;28;20225;-74
2021/07/05 07:04:25;;;;;;;1.40;1.00;;;;;;;26.95;62.11;97614.63;5038378;28;20210;-74
2021/07/05 07:06:54;;;;;;;1.20;1.00;;;;;;;27.08;62.30;97611.00;5043048;28;20217;-74
2021/07/05 07:09:21;;;;;;;3.33;1.27;;;;;;;27.22;62.61;97605.44;5038182;28;20209;-74
2021/07/05 07:11:48;;;;;;;3.07;1.27;;;;;;;27.25;61.94;97613.00;5031818;28;20199;-74
2021/07/05 07:14:18;;;;;;;1.97;1.20;;;;;;;27.26;62.19;97614.66;5041260;28;20635;-76
2021/07/05 07:16:53;;;;;;;2.30;1.00;;;;;;;27.46;61.93;97616.81;5054473;28;20221;-76
2021/07/05 07:19:20;;;;;;;2.57;0.90;;;;;;;27.51;61.79;97617.47;5035331;28;20242;-75
2021/07/05 07:21:48;;;;;;;2.83;1.30;;;;;;;26.20;67.68;97605.59;5043536;28;20215;-75
2021/07/05 07:24:18;;;;;;;2.03;1.27;;;;;;;26.32;68.20;97602.31;5035710;28;20570;-74
2021/07/05 07:26:46;;;;;;;2.87;1.23;;;;;;;26.69;68.04;97597.28;5050864;28;20221;-76
2021/07/05 07:29:13;;;;;;;2.57;1.10;;;;;;;26.73;64.61;97598.28;5035413;28;20207;-78
2021/07/05 07:31:41;;;;;;;1.73;0.90;;;;;;;27.45;61.35;97607.78;5053291;28;20190;-76
2021/07/05 07:34:08;;;;;;;1.70;0.90;;;;;;;26.61;66.26;97599.97;5046771;28;20205;-77
2021/07/05 07:36:36;;;;;;;2.57;1.07;;;;;;;27.36;63.55;97606.94;5042313;28;20236;-75
2021/07/05 07:39:06;;;;;;;2.23;1.00;;;;;;;26.41;67.21;97586.78;5053214;28;20206;-75
2021/07/05 07:41:35;;;;;;;2.80;1.00;;;;;;;25.69;74.08;97575.06;5037311;28;20315;-75
2021/07/05 07:44:03;;;;;;;2.77;1.20;;;;;;;26.77;67.42;97591.06;5040382;28;20210;-76
2021/07/05 07:46:30;;;;;;;1.33;1.17;;;;;;;28.14;60.57;97598.53;5034709;28;20228;-75
2021/07/05 07:48:58;;;;;;;2.83;1.17;;;;;;;27.10;62.32;97602.44;5035357;28;20199;-75
2021/07/05 07:51:25;;;;;;;2.40;1.00;;;;;;;27.60;62.42;97590.06;5035134;28;20214;-76
2021/07/05 07:53:54;;;;;;;1.93;1.30;;;;;;;27.76;61.50;97589.28;5042753;28;20207;-75
2021/07/05 07:56:21;;;;;;;2.07;1.07;;;;;;;27.15;63.70;97594.09;5044155;28;20252;-75
2021/07/05 07:58:49;;;;;;;2.53;1.00;;;;;;;27.42;61.76;97591.16;5034746;28;20214;-75
2021/07/05 08:01:17;;;;;;;2.03;0.80;;;;;;;28.33;58.61;97598.19;5051620;28;20248;-74
2021/07/05 08:03:44;;;;;;;4.23;1.40;;;;;;;26.62;69.13;97583.22;5050053;28;20674;-75
2021/07/05 08:06:11;;;;;;;2.13;0.90;;;;;;;27.59;63.75;97594.75;5052178;28;20728;-75
2021/07/05 08:08:38;;;;;;;1.87;0.83;;;;;;;28.11;62.00;97592.88;5034585;28;20202;-74
2021/07/05 08:11:06;;;;;;;1.50;1.00;;;;;;;28.23;61.44;97596.56;5034413;28;20210;-76
2021/07/05 08:13:33;;;;;;;3.07;0.80;;;;;;;27.57;62.10;97607.16;5047577;28;20855;-72
2021/07/05 08:16:02;;;;;;;1.13;0.90;;;;;;;27.76;61.23;97613.19;5042312;28;20223;-73
2021/07/05 08:18:29;;;;;;;0.93;0.70;;;;;;;27.44;60.34;97610.81;5048093;28;20203;-73
2021/07/05 08:20:56;;;;;;;3.23;1.10;;;;;;;28.33;59.06;97609.19;5046572;28;20231;-73
2021/07/05 08:23:23;;;;;;;2.10;1.00;;;;;;;28.19;58.63;97617.59;5043386;28;20206;-73
2021/07/05 08:25:51;;;;;;;2.07;0.90;;;;;;;28.21;58.93;97601.59;5045455;28;20223;-73
2021/07/05 08:28:18;;;;;;;3.00;1.10;;;;;;;27.92;60.20;97606.13;5050361;28;20684;-73
2021/07/05 08:30:45;;;;;;;1.87;0.83;;;;;;;26.86;62.62;97613.78;5034245;28;20194;-73
2021/07/05 08:33:14;;;;;;;4.23;1.10;;;;;;;27.82;60.47;97611.91;5034352;28;20286;-73
2021/07/05 08:35:41;;;;;;;1.33;1.00;;;;;;;27.21;61.84;97617.53;5051995;28;20272;-72
2021/07/05 08:38:09;;;;;;;1.37;0.90;;;;;;;27.42;62.21;97615.84;5045693;28;20198;-71
2021/07/05 08:40:36;;;;;;;2.90;1.03;;;;;;;26.58;64.09;97609.63;5054308;28;20222;-71
2021/07/05 08:43:04;;;;;;;1.70;1.00;;;;;;;27.13;62.12;97610.03;5045938;28;20578;-72
2021/07/05 08:45:31;;;;;;;2.40;1.10;;;;;;;27.55;61.60;97606.66;5038465;28;20717;-72
2021/07/05 08:47:59;;;;;;;2.03;1.23;;;;;;;27.26;62.77;97596.25;5048355;28;20222;-72
2021/07/05 08:50:28;;;;;;;1.80;0.90;;;;;;;27.12;62.71;97586.53;5042307;28;20590;-72
2021/07/05 08:52:58;;;;;;;4.63;1.10;;;;;;;28.11;59.32;97601.09;5033976;28;20199;-78
2021/07/05 08:55:27;;;;;;;1.87;1.17;;;;;;;27.82;59.12;97593.50;5033499;28;20219;-72
2021/07/05 08:57:55;;;;;;;2.73;1.00;;;;;;;27.47;64.14;97578.09;5047656;28;20206;-72
2021/07/05 09:00:24;;;;;;;2.50;1.10;;;;;;;27.31;65.45;97581.63;5053543;28;20225;-75
2021/07/05 09:02:52;;;;;;;2.13;1.00;;;;;;;26.90;65.63;97592.88;5050548;28;20225;-72
2021/07/05 09:05:20;;;;;;;1.77;1.07;;;;;;;27.63;61.87;97595.72;5049386;28;20209;-73
2021/07/05 09:08:12;;;;;;;2.70;1.00;;;;;;;27.92;60.50;97587.69;5040740;28;20233;-73
2021/07/05 09:10:43;;;;;;;1.47;0.70;;;;;;;28.56;56.46;97591.41;5021773;28;20221;-72
2021/07/05 09:13:13;;;;;;;1.43;1.00;;;;;;;27.97;62.07;97595.00;5049774;28;20198;-72
2021/07/05 09:15:43;;;;;;;2.13;1.20;;;;;;;26.84;68.63;97582.34;5034605;28;20223;-72
2021/07/05 09:18:30;;;;;;;2.40;1.30;;;;;;;27.07;68.88;97578.44;5048451;28;20198;-72
2021/07/05 09:20:59;;;;;;;3.50;1.13;;;;;;;27.86;63.53;97594.47;5034541;28;20678;-72
2021/07/05 09:23:28;;;;;;;1.33;0.90;;;;;;;27.87;65.70;97587.06;5033204;28;20210;-71
2021/07/05 09:25:55;;;;;;;1.73;0.90;;;;;;;29.21;58.31;97597.34;5042304;28;20225;-72
2021/07/05 09:28:23;;;;;;;3.67;1.17;;;;;;;28.94;60.14;97595.03;5051279;28;20211;-72
2021/07/05 09:30:56;;;;;;;1.23;1.00;;;;;;;27.13;65.49;97588.13;5040259;28;20203;-72
2021/07/05 09:33:25;;;;;;;2.43;1.10;;;;;;;28.43;60.54;97595.94;5046432;28;20190;-72
2021/07/05 09:35:54;;;;;;;2.50;1.00;;;;;;;28.68;57.62;97606.06;5039038;28;20215;-74
2021/07/05 09:38:34;;;;;;;3.00;1.10;;;;;;;27.56;66.68;97602.81;5039959;28;20618;-71
2021/07/05 09:41:18;;;;;;;2.43;1.10;;;;;;;26.89;69.75;97595.91;5033458;28;20215;-71
2021/07/05 09:43:48;;;;;;;1.07;0.80;;;;;;;27.56;70.11;97594.59;5041208;28;20191;-72
2021/07/05 09:46:16;;;;;;;2.97;1.13;;;;;;;26.20;72.88;97605.59;5037994;28;20246;-71
2021/07/05 09:48:45;;;;;;;1.93;1.00;;;;;;;26.82;71.35;97596.38;5042977;28;20659;-71
2021/07/05 09:51:14;;;;;;;1.10;0.80;;;;;;;27.01;71.12;97593.41;5047339;28;20205;-71
2021/07/05 09:53:44;;;;;;;1.10;0.90;;;;;;;27.46;68.29;97597.63;5046883;28;20682;-71
2021/07/05 09:56:20;;;;;;;2.03;0.80;;;;;;;26.97;70.18;97593.25;5042209;28;20551;-71
2021/07/05 09:58:47;;;;;;;0.70;0.70;;;;;;;26.39;71.82;97581.59;5036768;28;20210;-71
2021/07/05 10:01:24;;;;;;;2.07;1.37;;;;;;;26.36;74.50;97573.22;5049005;28;20225;-71
2021/07/05 10:03:51;;;;;;;3.47;0.97;;;;;;;25.85;78.03;97568.13;5044738;28;20231;-72
2021/07/05 10:06:20;;;;;;;1.10;1.00;;;;;;;25.39;81.15;97566.75;5042291;28;20230;-74
2021/07/05 10:08:49;;;;;;;1.10;0.80;;;;;;;26.85;72.45;97578.53;5040395;28;20256;-72
2021/07/05 10:11:17;;;;;;;0.80;0.70;;;;;;;26.26;72.19;97587.97;5039889;28;20841;-74
2021/07/05 10:13:44;;;;;;;0.70;0.70;;;;;;;27.18;67.22;97588.00;5034086;28;20209;-72
2021/07/05 10:16:13;;;;;;;1.47;0.77;;;;;;;26.68;72.04;97581.97;5043101;28;20313;-72
2021/07/05 10:18:42;;;;;;;0.70;0.70;;;;;;;26.31;73.84;97574.16;5032621;28;20198;-71
2021/07/05 10:21:10;;;;;;;3.10;0.97;;;;;;;26.79;70.50;97579.75;5045578;28;20222;-72
2021/07/05 10:23:37;;;;;;;0.87;0.80;;;;;;;26.67;71.36;97576.81;5040158;28;20210;-76
2021/07/05 10:26:06;;;;;;;0.80;0.80;;;;;;;26.72;71.30;97571.19;5047566;28;20225;-73
2021/07/05 10:28:34;;;;;;;0.90;0.70;;;;;;;26.51;74.90;97561.88;5028393;28;20206;-79
2021/07/05 10:31:02;;;;;;;2.20;0.80;;;;;;;27.05;72.60;97565.06;5031508;28;20265;-75
2021/07/05 10:33:30;;;;;;;0.70;0.60;;;;;;;27.49;69.06;97578.59;5048018;28;20221;-74
2021/07/05 10:35:58;;;;;;;1.87;0.67;;;;;;;26.64;71.27;97569.22;5049093;28;20279;-76
2021/07/05 10:38:27;;;;;;;1.47;1.00;;;;;;;26.35;75.40;97550.50;5039429;28;20205;-73
2021/07/05 10:40:57;;;;;;;1.13;0.60;;;;;;;26.03;73.17;97563.63;5043807;28;20544;-76
2021/07/05 10:43:45;;;;;;;1.00;0.70;;;;;;;26.58;73.20;97556.78;5038917;28;20202;-78
2021/07/05 10:46:12;;;;;;;0.87;0.73;;;;;;;27.42;69.55;97553.56;5034631;28;20222;-75
2021/07/05 10:48:41;;;;;;;2.00;0.90;;;;;;;28.67;60.46;97565.19;5045851;28;20569;-75
2021/07/05 10:51:10;;;;;;;1.53;0.90;;;;;;;25.90;74.65;97537.13;5041485;28;20754;-74
2021/07/05 10:53:57;;;;;;;1.10;0.90;;;;;;;26.98;71.63;97547.47;5048894;28;20198;-71
2021/07/05 10:56:37;;;;;;;0.93;0.60;;;;;;;28.38;65.11;97543.94;5040675;28;20258;-73
2021/07/05 10:59:44;;;;;;;1.33;0.70;;;;;;;29.37;56.24;97554.41;5046976;28;20222;-72
2021/07/05 11:02:33;;;;;;;1.00;0.70;;;;;;;28.17;61.88;97553.97;5030969;28;20753;-73
2021/07/05 11:05:00;;;;;;;1.20;0.70;;;;;;;28.43;61.81;97557.50;5046227;28;20212;-74
2021/07/05 11:07:44;;;;;;;1.27;0.60;;;;;;;26.93;67.16;97542.13;5048575;28;20224;-72
2021/07/05 11:10:18;;;;;;;0.70;0.70;;;;;;;27.29;66.71;97543.56;5040690;28;20231;-73
2021/07/05 11:12:58;;;;;;;1.67;1.00;;;;;;;26.90;66.25;97548.25;5046976;28;20199;-72
2021/07/05 11:15:47;;;;;;;1.70;0.80;;;;;;;26.97;68.03;97543.13;5041778;28;20226;-72
2021/07/05 11:19:09;;;;;;;1.97;0.70;;;;;;;29.00;58.58;97564.31;5030787;28;20218;-72
2021/07/05 11:22:01;;;;;;;0.73;0.60;;;;;;;28.35;63.10;97549.25;5037360;28;20731;-80
2021/07/05 11:25:04;;;;;;;1.00;0.70;;;;;;;28.17;64.35;97545.72;5033187;28;20285;-73
2021/07/05 11:27:33;;;;;;;0.95;0.85;;;;;;;29.12;56.36;97567.16;5038158;28;20297;-73
2021/07/05 11:30:22;;;;;;;0.80;0.60;;;;;;;27.45;59.71;97569.41;5037816;28;20229;-74
2021/07/05 11:32:51;;;;;;;0.90;0.80;;;;;;;26.30;69.86;97547.91;5039952;28;20196;-73
2021/07/05 11:35:39;;;;;;;0.77;0.70;;;;;;;27.10;65.87;97550.41;5036607;28;20203;-73
2021/07/05 11:38:12;;;;;;;0.70;0.70;;;;;;;28.37;58.44;97553.28;5049739;28;20218;-73
2021/07/05 11:40:45;;;;;;;1.73;0.97;;;;;;;27.39;63.60;97556.16;5032102;28;20578;-74
2021/07/05 11:43:13;;;;;;;1.40;0.77;;;;;;;27.73;63.86;97559.78;5046267;28;20235;-75
2021/07/05 11:45:46;;;;;;;1.00;0.80;;;;;;;27.21;67.31;97549.03;5042767;28;20657;-75
2021/07/05 11:48:48;;;;;;;2.40;0.80;;;;;;;28.65;58.70;97560.06;5046545;28;20214;-72